createdAt,value
2018-10-17T00:00:12.026Z,23.50
2018-10-17T00:02:41.522Z,23.50
2018-10-17T00:05:11.014Z,23.50
2018-10-17T00:07:40.021Z,23.50
2018-10-17T00:10:10.530Z,23.50
2018-10-17T00:12:40.458Z,23.50
2018-10-17T00:15:10.427Z,23.50
2018-10-17T00:17:39.486Z,23.50
2018-10-17T00:20:09.993Z,23.50
2018-10-17T00:22:39.074Z,23.50
2018-10-17T00:25:08.447Z,23.50
2018-10-17T00:27:39.441Z,23.40
2018-10-17T00:30:11.145Z,23.40
2018-10-17T00:32:41.075Z,23.50
2018-10-17T00:35:10.617Z,23.40
2018-10-17T00:37:39.806Z,23.40
2018-10-17T00:40:09.543Z,23.40
2018-10-17T00:42:39.299Z,23.40
2018-10-17T00:45:08.622Z,23.40
2018-10-17T00:47:38.909Z,23.40
2018-10-17T00:50:08.091Z,23.40
2018-10-17T00:52:38.730Z,23.40
2018-10-17T00:55:07.551Z,23.40
2018-10-17T00:57:37.798Z,23.40
2018-10-17T01:00:06.869Z,23.40
2018-10-17T01:02:35.902Z,23.40
2018-10-17T01:05:05.064Z,23.40
2018-10-17T01:07:34.159Z,23.30
2018-10-17T01:10:03.477Z,23.40
2018-10-17T01:12:32.527Z,23.30
2018-10-17T01:15:01.589Z,23.30
2018-10-17T01:17:30.615Z,23.40
2018-10-17T01:19:59.658Z,23.30
2018-10-17T01:22:29.862Z,23.30
2018-10-17T01:24:58.919Z,23.30
2018-10-17T01:27:28.373Z,23.30
2018-10-17T01:29:59.462Z,23.30
2018-10-17T01:32:29.139Z,23.30
2018-10-17T01:34:58.222Z,23.30
2018-10-17T01:37:27.831Z,23.30
2018-10-17T01:39:56.889Z,23.30
2018-10-17T01:42:26.534Z,23.30
2018-10-17T01:44:55.582Z,23.20
2018-10-17T01:47:25.381Z,23.20
2018-10-17T01:49:55.054Z,23.20
2018-10-17T01:52:24.089Z,23.30
2018-10-17T01:54:53.174Z,23.20
2018-10-17T01:57:22.775Z,23.20
2018-10-17T01:59:51.801Z,23.20
2018-10-17T02:02:20.849Z,23.20
2018-10-17T02:04:49.894Z,23.20
2018-10-17T02:07:19.670Z,23.20
2018-10-17T02:09:48.790Z,23.20
2018-10-17T02:12:17.841Z,23.20
2018-10-17T02:14:46.865Z,23.20
2018-10-17T02:17:15.985Z,23.20
2018-10-17T02:19:46.082Z,23.20
2018-10-17T02:22:15.123Z,23.20
2018-10-17T02:24:44.170Z,23.20
2018-10-17T02:27:13.839Z,23.10
2018-10-17T02:29:44.513Z,23.10
2018-10-17T02:32:14.244Z,23.10
2018-10-17T02:34:49.262Z,23.10
2018-10-17T02:37:18.422Z,23.20
2018-10-17T02:39:48.975Z,23.10
2018-10-17T02:42:18.613Z,23.10
2018-10-17T02:44:47.701Z,23.10
2018-10-17T02:47:18.299Z,23.10
2018-10-17T02:49:47.632Z,23.10
2018-10-17T02:52:16.706Z,23.10
2018-10-17T02:54:46.316Z,23.10
2018-10-17T02:57:15.458Z,23.00
2018-10-17T02:59:44.601Z,23.00
2018-10-17T03:02:13.706Z,23.10
2018-10-17T03:04:42.762Z,23.10
2018-10-17T03:07:12.011Z,23.10
2018-10-17T03:09:41.018Z,23.10
2018-10-17T03:12:10.090Z,23.00
2018-10-17T03:14:39.322Z,23.10
2018-10-17T03:17:08.496Z,23.00
2018-10-17T03:19:38.506Z,23.00
2018-10-17T03:22:07.732Z,23.10
2018-10-17T03:24:36.797Z,23.00
2018-10-17T03:27:06.213Z,23.00
2018-10-17T03:29:36.450Z,23.00
2018-10-17T03:32:06.095Z,23.00
2018-10-17T03:34:35.322Z,23.00
2018-10-17T03:37:05.492Z,22.90
2018-10-17T03:39:35.167Z,23.00
2018-10-17T03:42:05.898Z,23.00
2018-10-17T03:44:36.031Z,23.00
2018-10-17T03:47:06.217Z,22.90
2018-10-17T03:49:35.243Z,23.00
2018-10-17T03:52:05.572Z,22.90
2018-10-17T03:54:36.870Z,22.90
2018-10-17T03:57:05.960Z,22.90
2018-10-17T03:59:35.471Z,22.90
2018-10-17T04:02:04.737Z,22.90
2018-10-17T04:04:34.563Z,22.90
2018-10-17T04:07:04.219Z,22.90
2018-10-17T04:09:33.574Z,22.90
2018-10-17T04:12:03.546Z,22.90
2018-10-17T04:14:33.598Z,22.90
2018-10-17T04:17:03.075Z,22.90
2018-10-17T04:19:32.956Z,22.90
2018-10-17T04:22:02.830Z,22.80
2018-10-17T04:24:32.646Z,22.80
2018-10-17T04:27:03.031Z,22.90
2018-10-17T04:29:34.188Z,22.80
2018-10-17T04:32:04.679Z,22.80
2018-10-17T04:34:33.947Z,22.80
2018-10-17T04:37:04.132Z,22.80
2018-10-17T04:39:33.177Z,22.80
2018-10-17T04:42:02.921Z,22.80
2018-10-17T04:44:32.530Z,22.80
2018-10-17T04:47:02.230Z,22.80
2018-10-17T04:49:31.901Z,22.80
2018-10-17T04:52:00.946Z,22.80
2018-10-17T04:54:29.973Z,22.80
2018-10-17T04:57:00.070Z,22.80
2018-10-17T04:59:29.139Z,22.80
2018-10-17T05:01:58.287Z,22.70
2018-10-17T05:04:27.381Z,22.80
2018-10-17T05:06:56.491Z,22.70
2018-10-17T05:09:25.550Z,22.80
2018-10-17T05:11:54.594Z,22.70
2018-10-17T05:14:23.617Z,22.70
2018-10-17T05:16:53.383Z,22.70
2018-10-17T05:19:22.630Z,22.70
2018-10-17T05:21:52.334Z,22.70
2018-10-17T05:24:21.373Z,22.70
2018-10-17T05:26:50.702Z,22.70
2018-10-17T05:29:20.286Z,22.70
2018-10-17T05:31:50.461Z,22.70
2018-10-17T05:34:19.517Z,22.60
2018-10-17T05:36:48.554Z,22.70
2018-10-17T05:39:17.597Z,22.60
2018-10-17T05:41:47.603Z,22.70
2018-10-17T05:44:17.294Z,22.60
2018-10-17T05:46:46.610Z,22.60
2018-10-17T05:49:15.752Z,22.60
2018-10-17T05:51:45.342Z,22.60
2018-10-17T05:54:14.598Z,22.60
2018-10-17T05:56:43.661Z,22.60
2018-10-17T05:59:12.956Z,22.60
2018-10-17T06:01:42.051Z,22.60
2018-10-17T06:04:11.079Z,22.60
2018-10-17T06:06:40.226Z,22.60
2018-10-17T06:09:10.826Z,22.60
2018-10-17T06:11:39.921Z,22.60
2018-10-17T06:14:13.252Z,22.60
2018-10-17T06:16:42.458Z,22.50
2018-10-17T06:19:11.522Z,22.60
2018-10-17T06:21:40.605Z,22.60
2018-10-17T06:24:09.807Z,22.60
2018-10-17T06:26:39.891Z,22.60
2018-10-17T06:29:09.043Z,22.30
2018-10-17T06:31:38.788Z,20.80
2018-10-17T06:34:08.751Z,20.60
2018-10-17T06:36:37.762Z,20.10
2018-10-17T06:39:09.262Z,19.60
2018-10-17T06:41:38.436Z,19.90
2018-10-17T06:44:09.031Z,20.40
2018-10-17T06:46:38.730Z,20.80
2018-10-17T06:49:08.096Z,21.10
2018-10-17T06:51:37.141Z,21.20
2018-10-17T06:54:06.696Z,21.40
2018-10-17T06:56:35.625Z,21.50
2018-10-17T06:59:04.818Z,21.60
2018-10-17T07:01:34.786Z,21.60
2018-10-17T07:04:04.071Z,21.70
2018-10-17T07:06:33.158Z,21.80
2018-10-17T07:09:02.254Z,21.90
2018-10-17T07:11:31.343Z,21.90
2018-10-17T07:14:00.386Z,22.00
2018-10-17T07:16:29.518Z,22.00
2018-10-17T07:18:58.583Z,22.00
2018-10-17T07:21:27.650Z,22.10
2018-10-17T07:23:57.578Z,22.20
2018-10-17T07:26:26.802Z,22.30
2018-10-17T07:28:56.514Z,22.30
2018-10-17T07:31:26.033Z,22.50
2018-10-17T07:33:55.486Z,22.60
2018-10-17T07:36:24.560Z,22.80
2018-10-17T07:38:54.058Z,23.00
2018-10-17T07:41:23.717Z,23.10
2018-10-17T07:43:54.030Z,23.20
2018-10-17T07:46:24.034Z,23.30
2018-10-17T07:48:53.083Z,23.40
2018-10-17T07:51:22.954Z,23.40
2018-10-17T07:53:52.051Z,23.50
2018-10-17T07:56:21.110Z,23.50
2018-10-17T07:58:50.245Z,23.60
2018-10-17T08:01:24.897Z,23.60
2018-10-17T08:03:54.362Z,23.70
2018-10-17T08:06:23.492Z,23.70
2018-10-17T08:08:53.466Z,23.80
2018-10-17T08:11:23.127Z,23.80
2018-10-17T08:13:54.123Z,23.90
2018-10-17T08:16:23.205Z,23.90
2018-10-17T08:18:52.363Z,24.00
2018-10-17T08:21:22.059Z,24.00
2018-10-17T08:23:51.120Z,24.10
2018-10-17T08:26:20.162Z,24.10
2018-10-17T08:28:49.221Z,24.20
2018-10-17T08:31:19.238Z,24.20
2018-10-17T08:33:48.772Z,24.20
2018-10-17T08:36:18.423Z,24.20
2018-10-17T08:38:48.262Z,24.30
2018-10-17T08:41:17.445Z,24.40
2018-10-17T08:43:47.374Z,24.40
2018-10-17T08:46:16.963Z,24.40
2018-10-17T08:48:46.938Z,24.40
2018-10-17T08:51:15.987Z,24.40
2018-10-17T08:53:45.683Z,24.40
2018-10-17T08:56:15.492Z,24.40
2018-10-17T08:58:44.442Z,24.50
2018-10-17T09:01:13.843Z,24.50
2018-10-17T09:03:42.905Z,24.50
2018-10-17T09:06:12.024Z,24.50
2018-10-17T09:08:41.015Z,24.60
2018-10-17T09:11:10.990Z,24.60
2018-10-17T09:13:40.066Z,24.60
2018-10-17T09:16:09.196Z,24.70
2018-10-17T09:18:38.714Z,24.70
2018-10-17T09:21:08.189Z,24.80
2018-10-17T09:23:36.795Z,24.80
2018-10-17T09:26:05.867Z,24.80
2018-10-17T09:28:35.899Z,24.90
2018-10-17T09:31:06.574Z,24.90
2018-10-17T09:33:36.242Z,24.90
2018-10-17T09:36:06.236Z,24.90
2018-10-17T09:38:35.781Z,24.90
2018-10-17T09:41:04.866Z,24.90
2018-10-17T09:43:34.538Z,24.90
2018-10-17T09:46:04.864Z,25.00
2018-10-17T09:48:34.118Z,24.90
2018-10-17T09:51:03.459Z,24.90
2018-10-17T09:53:33.191Z,25.00
2018-10-17T09:56:03.186Z,25.00
2018-10-17T09:58:32.240Z,25.00
2018-10-17T10:01:08.173Z,25.00
2018-10-17T10:03:37.230Z,25.00
2018-10-17T10:07:10.015Z,25.20
2018-10-17T10:09:39.325Z,25.20
2018-10-17T10:12:09.524Z,25.20
2018-10-17T10:14:38.513Z,25.20
2018-10-17T10:17:07.931Z,25.30
2018-10-17T10:19:36.970Z,25.20
2018-10-17T10:22:06.258Z,25.20
2018-10-17T10:24:35.327Z,25.30
2018-10-17T10:27:04.861Z,25.30
2018-10-17T10:29:34.592Z,25.40
2018-10-17T10:32:04.389Z,25.40
2018-10-17T10:34:37.951Z,25.50
2018-10-17T10:37:07.062Z,25.50
2018-10-17T10:39:36.157Z,25.50
2018-10-17T10:42:05.838Z,25.50
2018-10-17T10:44:35.260Z,25.50
2018-10-17T10:47:05.835Z,25.50
2018-10-17T10:49:35.446Z,25.60
2018-10-17T10:52:05.883Z,25.60
2018-10-17T10:54:35.523Z,25.70
2018-10-17T10:57:04.663Z,25.60
2018-10-17T10:59:33.826Z,25.60
2018-10-17T11:02:03.356Z,25.60
2018-10-17T11:04:33.159Z,25.60
2018-10-17T11:07:02.143Z,25.50
2018-10-17T11:09:31.210Z,25.50
2018-10-17T11:12:00.267Z,25.50
2018-10-17T11:14:30.462Z,25.50
2018-10-17T11:16:59.376Z,25.50
2018-10-17T11:19:29.074Z,25.50
2018-10-17T11:21:58.230Z,25.60
2018-10-17T11:24:27.262Z,25.60
2018-10-17T11:26:56.474Z,25.70
2018-10-17T11:29:26.899Z,25.70
2018-10-17T11:31:56.464Z,25.70
2018-10-17T11:34:25.458Z,25.70
2018-10-17T11:36:54.791Z,25.70
2018-10-17T11:39:23.857Z,25.70
2018-10-17T11:41:53.052Z,25.80
2018-10-17T11:44:22.402Z,25.90
2018-10-17T11:46:53.528Z,25.90
2018-10-17T11:49:22.551Z,26.00
2018-10-17T11:51:51.617Z,26.00
2018-10-17T11:54:20.897Z,25.90
2018-10-17T11:56:49.940Z,25.90
2018-10-17T11:59:19.180Z,25.90
2018-10-17T12:01:48.703Z,26.00
2018-10-17T12:04:18.800Z,26.00
2018-10-17T12:06:47.701Z,26.00
2018-10-17T12:09:16.892Z,26.00
2018-10-17T12:11:46.332Z,26.00
2018-10-17T12:14:15.276Z,26.00
2018-10-17T12:16:44.334Z,26.00
2018-10-17T12:19:13.513Z,26.10
2018-10-17T12:21:42.602Z,26.10
2018-10-17T12:24:12.235Z,26.10
2018-10-17T12:26:41.252Z,26.10
2018-10-17T12:29:10.282Z,26.10
2018-10-17T12:31:39.625Z,26.10
2018-10-17T12:34:09.834Z,26.00
2018-10-17T12:36:39.661Z,26.00
2018-10-17T12:39:10.961Z,26.00
2018-10-17T12:41:40.087Z,26.00
2018-10-17T12:44:09.167Z,26.00
2018-10-17T12:46:43.615Z,25.90
2018-10-17T12:49:13.298Z,25.90
2018-10-17T12:51:42.990Z,25.80
2018-10-17T12:54:12.574Z,25.80
2018-10-17T12:56:41.659Z,25.70
2018-10-17T12:59:11.025Z,25.80
2018-10-17T13:01:40.576Z,25.70
2018-10-17T13:04:09.630Z,25.70
2018-10-17T13:06:40.711Z,25.60
2018-10-17T13:09:11.341Z,25.60
2018-10-17T13:11:40.961Z,25.50
2018-10-17T13:14:10.446Z,25.50
2018-10-17T13:16:39.514Z,25.50
2018-10-17T13:19:12.620Z,25.40
2018-10-17T13:21:43.471Z,25.40
2018-10-17T13:24:12.630Z,25.40
2018-10-17T13:26:41.655Z,25.30
2018-10-17T13:29:10.810Z,25.30
2018-10-17T13:31:40.833Z,25.30
2018-10-17T13:34:10.335Z,25.30
2018-10-17T13:36:39.412Z,25.30
2018-10-17T13:39:10.334Z,25.20
2018-10-17T13:41:39.393Z,25.20
2018-10-17T13:44:09.265Z,25.20
2018-10-17T13:46:39.618Z,25.20
2018-10-17T13:49:09.652Z,25.20
2018-10-17T13:51:38.970Z,25.20
2018-10-17T13:54:08.730Z,25.20
2018-10-17T13:56:37.798Z,25.20
2018-10-17T13:59:06.836Z,25.20
2018-10-17T14:01:36.115Z,25.20
2018-10-17T14:04:05.379Z,25.10
2018-10-17T14:06:35.862Z,25.10
2018-10-17T14:09:07.717Z,25.00
2018-10-17T14:11:37.026Z,25.00
2018-10-17T14:14:06.366Z,25.00
2018-10-17T14:16:35.583Z,24.90
2018-10-17T14:19:05.656Z,25.00
2018-10-17T14:21:34.817Z,24.90
2018-10-17T14:24:03.892Z,24.90
2018-10-17T14:26:33.855Z,24.80
2018-10-17T14:29:02.921Z,24.90
2018-10-17T14:31:32.612Z,24.80
2018-10-17T14:34:02.322Z,24.80
2018-10-17T14:36:31.363Z,24.80
2018-10-17T14:39:00.479Z,24.80
2018-10-17T14:41:29.550Z,24.80
2018-10-17T14:43:58.630Z,24.80
2018-10-17T14:46:28.826Z,24.70
2018-10-17T14:48:58.678Z,24.70
2018-10-17T14:51:27.728Z,24.70
2018-10-17T14:53:57.161Z,24.60
2018-10-17T14:56:26.271Z,24.70
2018-10-17T14:58:55.407Z,24.60
2018-10-17T15:01:24.431Z,24.60
2018-10-17T15:03:53.486Z,24.60
2018-10-17T15:06:22.950Z,24.60
2018-10-17T15:08:52.518Z,24.60
2018-10-17T15:11:21.710Z,24.50
2018-10-17T15:13:50.659Z,24.50
2018-10-17T15:16:20.087Z,24.50
2018-10-17T15:18:49.213Z,24.50
2018-10-17T15:21:18.397Z,24.40
2018-10-17T15:23:47.351Z,24.50
2018-10-17T15:26:16.424Z,24.40
2018-10-17T15:28:45.542Z,24.40
2018-10-17T15:31:15.276Z,24.40
2018-10-17T15:33:45.122Z,24.40
2018-10-17T15:36:14.284Z,24.40
2018-10-17T15:38:43.339Z,24.40
2018-10-17T15:41:12.386Z,24.40
2018-10-17T15:43:41.487Z,24.40
2018-10-17T15:46:11.834Z,24.30
2018-10-17T15:48:41.551Z,24.30
2018-10-17T15:51:11.455Z,24.30
2018-10-17T15:53:41.776Z,24.30
2018-10-17T15:56:11.147Z,24.30
2018-10-17T15:58:40.666Z,24.30
2018-10-17T16:01:09.892Z,24.30
2018-10-17T16:03:38.970Z,24.30
2018-10-17T16:06:10.471Z,24.30
2018-10-17T16:08:39.605Z,24.30
2018-10-17T16:11:08.702Z,24.30
2018-10-17T16:13:37.857Z,24.30
2018-10-17T16:16:06.985Z,24.30
2018-10-17T16:18:36.662Z,24.20
2018-10-17T16:21:06.514Z,24.20
2018-10-17T16:23:35.761Z,24.20
2018-10-17T16:26:09.857Z,24.20
2018-10-17T16:28:38.913Z,24.20
2018-10-17T16:31:09.975Z,24.20
2018-10-17T16:33:40.438Z,24.20
2018-10-17T16:36:09.549Z,24.20
2018-10-17T16:38:38.566Z,24.10
2018-10-17T16:41:07.743Z,24.20
2018-10-17T16:43:36.774Z,24.10
2018-10-17T16:46:06.426Z,24.10
2018-10-17T16:48:37.739Z,24.10
2018-10-17T16:51:07.441Z,24.10
2018-10-17T16:53:36.949Z,24.10
2018-10-17T16:56:06.550Z,24.10
2018-10-17T16:58:35.609Z,24.10
2018-10-17T17:01:04.710Z,24.10
2018-10-17T17:03:34.522Z,24.00
2018-10-17T17:06:03.727Z,24.10
2018-10-17T17:08:32.827Z,24.10
2018-10-17T17:11:01.919Z,24.00
2018-10-17T17:13:31.027Z,24.00
2018-10-17T17:16:00.776Z,24.00
2018-10-17T17:18:29.847Z,24.00
2018-10-17T17:20:58.899Z,24.00
2018-10-17T17:23:28.107Z,23.90
2018-10-17T17:25:57.350Z,23.70
2018-10-17T17:28:26.514Z,23.40
2018-10-17T17:30:58.106Z,23.30
2018-10-17T17:33:27.858Z,23.40
2018-10-17T17:35:56.949Z,23.50
2018-10-17T17:38:26.385Z,23.50
2018-10-17T17:40:55.567Z,23.60
2018-10-17T17:43:25.301Z,23.60
2018-10-17T17:45:54.462Z,23.60
2018-10-17T17:48:25.182Z,23.60
2018-10-17T17:50:54.346Z,23.60
2018-10-17T17:53:24.101Z,23.60
2018-10-17T17:55:53.179Z,23.60
2018-10-17T17:58:22.373Z,23.60
2018-10-17T18:00:51.462Z,23.60
2018-10-17T18:03:22.555Z,23.60
2018-10-17T18:05:51.630Z,23.60
2018-10-17T18:08:23.646Z,23.60
2018-10-17T18:10:52.708Z,23.60
2018-10-17T18:13:25.262Z,23.60
2018-10-17T18:15:54.420Z,23.60
2018-10-17T18:18:23.453Z,23.60
2018-10-17T18:20:52.950Z,23.60
2018-10-17T18:23:22.050Z,23.60
2018-10-17T18:25:51.238Z,23.60
2018-10-17T18:28:21.203Z,23.60
2018-10-17T18:30:50.886Z,23.60
2018-10-17T18:33:20.543Z,23.60
2018-10-17T18:35:50.327Z,23.60
2018-10-17T18:38:19.901Z,23.60
2018-10-17T18:40:49.071Z,23.60
2018-10-17T18:43:18.528Z,23.60
2018-10-17T18:45:48.082Z,23.60
2018-10-17T18:48:17.883Z,23.60
2018-10-17T18:50:47.099Z,23.60
2018-10-17T18:53:16.202Z,23.60
2018-10-17T18:55:45.593Z,23.50
2018-10-17T18:58:15.187Z,23.60
2018-10-17T19:00:44.317Z,23.60
2018-10-17T19:03:14.108Z,23.60
2018-10-17T19:05:43.126Z,23.50
2018-10-17T19:08:12.896Z,23.50
2018-10-17T19:10:44.534Z,23.50
2018-10-17T19:13:13.601Z,23.50
2018-10-17T19:15:42.711Z,23.50
2018-10-17T19:18:11.755Z,23.50
2018-10-17T19:20:40.811Z,23.50
2018-10-17T19:23:10.038Z,23.50
2018-10-17T19:25:39.110Z,23.50
2018-10-17T19:28:08.714Z,23.50
2018-10-17T19:30:38.586Z,23.50
2018-10-17T19:33:08.465Z,23.50
2018-10-17T19:35:37.367Z,23.50
2018-10-17T19:38:06.887Z,23.50
2018-10-17T19:40:36.414Z,23.50
2018-10-17T19:43:05.607Z,23.50
2018-10-17T19:45:34.883Z,23.50
2018-10-17T19:48:04.690Z,23.40
2018-10-17T19:50:33.768Z,23.50
2018-10-17T19:53:02.813Z,23.50
2018-10-17T19:55:31.949Z,23.40
2018-10-17T19:58:01.095Z,23.40
2018-10-17T20:00:30.253Z,23.40
2018-10-17T20:03:00.638Z,23.40
2018-10-17T20:05:29.669Z,23.40
2018-10-17T20:07:59.835Z,23.40
2018-10-17T20:10:29.174Z,23.40
2018-10-17T20:12:58.831Z,23.40
2018-10-17T20:15:27.869Z,23.40
2018-10-17T20:17:57.012Z,23.40
2018-10-17T20:20:26.979Z,23.40
2018-10-17T20:22:56.644Z,23.40
2018-10-17T20:25:25.711Z,23.40
2018-10-17T20:27:54.775Z,23.40
2018-10-17T20:30:24.605Z,23.40
2018-10-17T20:32:53.964Z,23.40
2018-10-17T20:35:23.068Z,23.40
2018-10-17T20:37:52.136Z,23.40
2018-10-17T20:40:21.227Z,23.40
2018-10-17T20:42:50.359Z,23.30
2018-10-17T20:45:19.482Z,23.30
2018-10-17T20:47:49.144Z,23.30
2018-10-17T20:50:18.729Z,23.30
2018-10-17T20:52:47.724Z,23.30
2018-10-17T20:55:16.801Z,23.30
2018-10-17T20:57:45.878Z,23.30
2018-10-17T21:00:15.831Z,23.30
2018-10-17T21:02:45.545Z,23.30
2018-10-17T21:05:14.600Z,23.30
2018-10-17T21:07:44.222Z,23.30
2018-10-17T21:10:13.373Z,23.30
2018-10-17T21:12:42.445Z,23.30
2018-10-17T21:15:12.626Z,23.30
2018-10-17T21:17:41.678Z,23.30
2018-10-17T21:20:10.808Z,23.30
2018-10-17T21:22:39.922Z,23.30
2018-10-17T21:25:08.968Z,23.30
2018-10-17T21:27:38.094Z,23.30
2018-10-17T21:30:09.375Z,23.20
2018-10-17T21:32:39.063Z,23.20
2018-10-17T21:35:08.338Z,23.30
2018-10-17T21:37:37.437Z,23.20
2018-10-17T21:40:06.562Z,23.20
2018-10-17T21:42:35.597Z,23.20
2018-10-17T21:45:05.262Z,23.20
2018-10-17T21:47:35.243Z,23.20
2018-10-17T21:50:05.286Z,23.20
2018-10-17T21:52:34.269Z,23.20
2018-10-17T21:55:03.381Z,23.20
2018-10-17T21:57:33.431Z,23.20
2018-10-17T22:00:02.469Z,23.20
2018-10-17T22:02:31.551Z,23.20
2018-10-17T22:05:00.617Z,23.20
2018-10-17T22:07:30.310Z,23.20
2018-10-17T22:09:59.359Z,23.20
2018-10-17T22:12:28.429Z,23.20
2018-10-17T22:14:58.112Z,23.20
2018-10-17T22:17:28.511Z,23.20
2018-10-17T22:19:58.010Z,23.20
2018-10-17T22:22:27.631Z,23.20
2018-10-17T22:24:57.026Z,23.20
2018-10-17T22:27:26.535Z,23.10
2018-10-17T22:29:57.164Z,23.10
2018-10-17T22:32:26.800Z,23.10
2018-10-17T22:34:56.318Z,23.10
2018-10-17T22:37:25.369Z,23.10
2018-10-17T22:39:54.463Z,23.10
2018-10-17T22:42:23.505Z,23.10
2018-10-17T22:44:52.661Z,23.10
2018-10-17T22:47:23.021Z,23.10
2018-10-17T22:49:52.745Z,23.10
2018-10-17T22:52:21.759Z,23.10
2018-10-17T22:54:51.683Z,23.10
2018-10-17T22:57:20.734Z,23.10
2018-10-17T22:59:49.774Z,23.10
2018-10-17T23:02:18.836Z,23.10
2018-10-17T23:04:47.882Z,23.10
2018-10-17T23:07:17.027Z,23.00
2018-10-17T23:09:46.903Z,23.00
2018-10-17T23:12:16.851Z,23.10
2018-10-17T23:14:45.898Z,23.00
2018-10-17T23:17:14.973Z,23.10
2018-10-17T23:19:44.064Z,23.00
2018-10-17T23:22:13.093Z,23.00
2018-10-17T23:24:42.222Z,23.00
2018-10-17T23:27:12.438Z,23.00
2018-10-17T23:29:42.199Z,23.00
2018-10-17T23:32:11.925Z,23.00
2018-10-17T23:34:40.850Z,23.00
2018-10-17T23:37:09.991Z,23.00
2018-10-17T23:39:39.065Z,23.00
2018-10-17T23:42:08.117Z,23.00
2018-10-17T23:44:38.042Z,23.00
2018-10-17T23:47:08.381Z,23.00
2018-10-17T23:49:38.250Z,23.00
2018-10-17T23:52:07.298Z,23.00
2018-10-17T23:54:38.322Z,23.00
2018-10-17T23:57:07.386Z,23.00
2018-10-17T23:59:36.422Z,22.90
